createdAt,value
2023-08-24T00:00:00.083Z,17.75
2023-08-24T00:03:04.204Z,17.83
2023-08-24T00:06:07.300Z,16.00
2023-08-24T00:09:09.745Z,15.60
2023-08-24T00:12:11.807Z,19.67
2023-08-24T00:15:14.360Z,16.00
2023-08-24T00:18:16.432Z,17.40
2023-08-24T00:21:20.699Z,18.50
2023-08-24T00:24:22.927Z,16.60
2023-08-24T00:27:24.966Z,16.83
2023-08-24T00:30:27.414Z,16.15
2023-08-24T00:33:29.514Z,15.88
2023-08-24T00:36:31.691Z,18.80
2023-08-24T00:39:34.156Z,17.13
2023-08-24T00:42:40.633Z,19.33
2023-08-24T00:45:42.747Z,16.42
2023-08-24T00:48:44.773Z,17.63
2023-08-24T00:51:47.271Z,19.33
2023-08-24T00:54:49.979Z,19.75
2023-08-24T00:57:52.688Z,20.48
2023-08-24T01:00:56.610Z,21.27
2023-08-24T01:03:58.873Z,19.75
2023-08-24T01:07:00.948Z,17.43
2023-08-24T01:10:04.558Z,17.95
2023-08-24T01:13:10.955Z,18.42
2023-08-24T01:16:17.420Z,17.73
2023-08-24T01:19:25.934Z,17.73
2023-08-24T01:22:27.935Z,19.13
2023-08-24T01:25:32.960Z,19.38
2023-08-24T01:28:35.545Z,18.27
2023-08-24T01:31:37.853Z,18.80
2023-08-24T01:34:40.225Z,17.58
2023-08-24T01:37:43.219Z,18.87
2023-08-24T01:40:54.910Z,19.95
2023-08-24T01:43:58.456Z,17.08
2023-08-24T01:47:03.355Z,18.27
2023-08-24T01:50:06.136Z,20.27
2023-08-24T01:53:09.103Z,18.93
2023-08-24T01:56:14.472Z,18.20
2023-08-24T01:59:17.747Z,17.00
2023-08-24T02:02:19.837Z,19.08
2023-08-24T02:05:22.086Z,17.80
2023-08-24T02:08:27.546Z,20.93
2023-08-24T02:11:29.678Z,17.85
2023-08-24T02:14:31.853Z,17.52
2023-08-24T02:17:34.893Z,18.55
2023-08-24T02:20:37.660Z,18.42
2023-08-24T02:23:40.050Z,17.97
2023-08-24T02:26:42.130Z,18.33
2023-08-24T02:29:45.210Z,16.20
2023-08-24T02:32:50.903Z,19.50
2023-08-24T02:35:53.005Z,16.90
2023-08-24T02:38:55.414Z,19.37
2023-08-24T02:41:57.462Z,18.77
2023-08-24T02:44:59.631Z,19.00
2023-08-24T02:48:02.241Z,17.35
2023-08-24T02:51:05.541Z,18.17
2023-08-24T02:54:07.617Z,18.13
2023-08-24T02:57:10.007Z,18.08
2023-08-24T03:00:14.792Z,19.60
2023-08-24T03:03:16.904Z,20.40
2023-08-24T03:06:20.238Z,20.10
2023-08-24T03:09:22.328Z,20.67
2023-08-24T03:12:24.400Z,20.15
2023-08-24T03:15:26.504Z,18.08
2023-08-24T03:18:28.876Z,17.08
2023-08-24T03:21:31.609Z,19.67
2023-08-24T03:24:33.675Z,24.77
2023-08-24T03:27:35.769Z,17.48
2023-08-24T03:30:38.583Z,18.63
2023-08-24T03:33:40.701Z,20.10
2023-08-24T03:36:42.806Z,20.60
2023-08-24T03:39:44.882Z,26.50
2023-08-24T03:42:46.909Z,19.92
2023-08-24T03:45:49.368Z,19.20
2023-08-24T03:48:51.526Z,19.15
2023-08-24T03:51:53.641Z,18.52
2023-08-24T03:54:55.724Z,19.00
2023-08-24T03:57:58.238Z,20.65
2023-08-24T04:01:01.766Z,21.27
2023-08-24T04:04:04.135Z,25.20
2023-08-24T04:07:06.479Z,21.88
2023-08-24T04:10:08.959Z,20.40
2023-08-24T04:13:11.224Z,24.52
2023-08-24T04:16:13.421Z,19.15
2023-08-24T04:19:15.604Z,19.05
2023-08-24T04:22:17.673Z,19.48
2023-08-24T04:25:19.754Z,19.97
2023-08-24T04:28:21.959Z,20.45
2023-08-24T04:31:24.049Z,23.33
2023-08-24T04:34:26.313Z,19.40
2023-08-24T04:37:28.364Z,22.95
2023-08-24T04:40:30.557Z,18.57
2023-08-24T04:43:33.570Z,22.10
2023-08-24T04:46:35.615Z,23.17
2023-08-24T04:49:38.198Z,19.83
2023-08-24T04:52:40.279Z,20.58
2023-08-24T04:55:42.641Z,20.90
2023-08-24T04:58:53.096Z,19.88
2023-08-24T05:01:55.164Z,20.33
2023-08-24T05:04:57.230Z,21.95
2023-08-24T05:07:59.844Z,18.13
2023-08-24T05:11:01.896Z,18.43
2023-08-24T05:14:03.941Z,19.83
2023-08-24T05:17:06.137Z,20.25
2023-08-24T05:20:09.501Z,19.20
2023-08-24T05:23:11.581Z,19.85
2023-08-24T05:26:13.713Z,18.37
2023-08-24T05:29:15.806Z,18.52
2023-08-24T05:32:17.850Z,16.83
2023-08-24T05:35:19.978Z,19.65
2023-08-24T05:38:22.088Z,19.13
2023-08-24T05:41:24.211Z,18.80
2023-08-24T05:44:26.328Z,18.00
2023-08-24T05:47:28.501Z,19.38
2023-08-24T05:50:30.681Z,17.95
2023-08-24T05:53:37.681Z,18.90
2023-08-24T05:56:41.968Z,17.47
2023-08-24T05:59:44.855Z,19.58
2023-08-24T06:02:47.309Z,19.30
2023-08-24T06:05:49.395Z,17.33
2023-08-24T06:08:51.568Z,16.50
2023-08-24T06:11:53.791Z,18.27
2023-08-24T06:14:57.851Z,22.48
2023-08-24T06:18:01.438Z,20.30
2023-08-24T06:21:03.636Z,20.23
2023-08-24T06:24:05.835Z,23.95
2023-08-24T06:27:08.197Z,14.83
2023-08-24T06:30:10.556Z,22.02
2023-08-24T06:33:12.734Z,17.20
2023-08-24T06:36:15.129Z,15.57
2023-08-24T06:39:17.360Z,19.05
2023-08-24T06:42:19.533Z,21.50
2023-08-24T06:45:22.693Z,17.45
2023-08-24T06:48:24.890Z,30.73
2023-08-24T06:51:27.849Z,19.08
2023-08-24T06:54:29.970Z,15.60
2023-08-24T06:57:32.066Z,18.03
2023-08-24T07:00:34.815Z,20.08
2023-08-24T07:03:36.926Z,18.25
2023-08-24T07:06:39.190Z,19.35
2023-08-24T07:09:41.313Z,16.13
2023-08-24T07:12:43.408Z,15.60
2023-08-24T07:15:46.720Z,15.00
2023-08-24T07:18:49.332Z,14.52
2023-08-24T07:21:51.436Z,15.73
2023-08-24T07:24:53.824Z,14.60
2023-08-24T07:28:00.008Z,21.30
2023-08-24T07:31:11.954Z,18.98
2023-08-24T07:34:14.243Z,18.15
2023-08-24T07:37:16.597Z,15.15
2023-08-24T07:40:18.987Z,19.48
2023-08-24T07:43:21.186Z,15.47
2023-08-24T07:46:23.518Z,15.75
2023-08-24T07:49:25.777Z,15.52
2023-08-24T07:52:29.936Z,17.02
2023-08-24T07:55:32.020Z,13.98
2023-08-24T07:58:34.195Z,12.93
2023-08-24T08:01:36.352Z,15.95
2023-08-24T08:04:38.770Z,11.00
2023-08-24T08:07:41.112Z,13.48
2023-08-24T08:10:43.717Z,12.98
2023-08-24T08:13:46.000Z,14.43
2023-08-24T08:16:48.436Z,11.65
2023-08-24T08:19:50.519Z,11.35
2023-08-24T08:22:52.884Z,12.52
2023-08-24T08:25:55.576Z,11.43
2023-08-24T08:28:57.659Z,11.53
2023-08-24T08:31:59.908Z,11.10
2023-08-24T08:35:03.405Z,11.85
2023-08-24T08:38:06.978Z,15.05
2023-08-24T08:41:10.112Z,13.02
2023-08-24T08:44:14.312Z,11.40
2023-08-24T08:47:17.327Z,13.35
2023-08-24T08:50:19.654Z,11.35
2023-08-24T08:53:22.630Z,19.63
2023-08-24T08:56:24.895Z,15.10
2023-08-24T08:59:30.424Z,11.43
2023-08-24T09:02:33.528Z,10.68
2023-08-24T09:05:38.391Z,11.73
2023-08-24T09:08:40.480Z,12.02
2023-08-24T09:11:43.466Z,12.15
2023-08-24T09:14:45.856Z,15.30
2023-08-24T09:17:50.495Z,16.08
2023-08-24T09:20:52.869Z,10.25
2023-08-24T09:23:56.752Z,10.80
2023-08-24T09:26:59.150Z,10.32
2023-08-24T09:30:01.732Z,9.70
2023-08-24T09:33:14.245Z,10.65
2023-08-24T09:36:16.473Z,10.38
2023-08-24T09:39:19.054Z,12.65
2023-08-24T09:42:27.762Z,9.55
2023-08-24T09:45:33.412Z,11.07
2023-08-24T09:48:35.989Z,9.98
2023-08-24T09:51:41.644Z,12.50
2023-08-24T09:54:44.215Z,10.98
2023-08-24T09:57:47.063Z,21.77
2023-08-24T10:00:50.208Z,10.53
2023-08-24T10:03:53.956Z,11.77
2023-08-24T10:07:17.249Z,11.05
2023-08-24T10:10:20.588Z,8.07
2023-08-24T10:13:40.424Z,12.38
2023-08-24T10:16:43.936Z,12.53
2023-08-24T10:19:47.543Z,7.88
2023-08-24T10:22:50.507Z,11.00
2023-08-24T10:25:54.006Z,11.13
2023-08-24T10:28:56.722Z,9.75
2023-08-24T10:31:59.609Z,9.87
2023-08-24T10:35:01.938Z,8.43
2023-08-24T10:38:04.408Z,8.93
2023-08-24T10:41:06.846Z,8.23
2023-08-24T10:44:17.380Z,7.32
2023-08-24T10:47:20.402Z,7.33
2023-08-24T10:50:23.226Z,8.40
2023-08-24T10:53:51.321Z,8.50
2023-08-24T10:56:55.788Z,19.05
2023-08-24T11:00:01.491Z,9.20
2023-08-24T11:03:03.857Z,8.87
2023-08-24T11:06:18.714Z,8.90
2023-08-24T11:09:21.073Z,7.40
2023-08-24T11:12:23.163Z,7.53
2023-08-24T11:15:41.682Z,7.95
2023-08-24T11:18:44.081Z,7.33
2023-08-24T11:21:46.754Z,10.43
2023-08-24T11:24:48.848Z,8.55
2023-08-24T11:27:51.500Z,10.73
2023-08-24T11:30:53.928Z,8.63
2023-08-24T11:33:58.922Z,6.80
2023-08-24T11:37:01.296Z,7.60
2023-08-24T11:40:04.468Z,8.55
2023-08-24T11:43:06.937Z,8.30
2023-08-24T11:46:09.089Z,6.55
2023-08-24T11:49:11.221Z,7.30
2023-08-24T11:52:17.231Z,11.35
2023-08-24T11:55:20.041Z,7.05
2023-08-24T11:58:22.154Z,8.88
2023-08-24T12:01:25.918Z,7.55
2023-08-24T12:04:28.242Z,8.57
2023-08-24T12:07:32.536Z,9.65
2023-08-24T12:10:36.904Z,9.10
2023-08-24T12:13:38.994Z,10.65
2023-08-24T12:16:43.075Z,7.60
2023-08-24T12:19:45.904Z,7.40
2023-08-24T12:22:55.047Z,8.68
2023-08-24T12:25:57.071Z,8.40
2023-08-24T12:29:04.180Z,7.72
2023-08-24T12:32:06.395Z,9.35
2023-08-24T12:35:09.625Z,7.97
2023-08-24T12:38:11.670Z,6.47
2023-08-24T12:41:13.758Z,7.03
2023-08-24T12:44:16.342Z,7.93
2023-08-24T12:47:18.497Z,7.05
2023-08-24T12:50:20.524Z,8.00
2023-08-24T12:53:22.556Z,6.50
2023-08-24T12:56:24.590Z,5.65
2023-08-24T12:59:26.584Z,6.60
2023-08-24T13:02:37.374Z,5.70
2023-08-24T13:05:40.675Z,7.70
2023-08-24T13:08:42.692Z,8.07
2023-08-24T13:11:44.763Z,7.05
2023-08-24T13:14:46.866Z,6.55
2023-08-24T13:17:49.054Z,7.03
2023-08-24T13:20:51.221Z,6.00
2023-08-24T13:23:54.170Z,5.60
2023-08-24T13:26:56.711Z,6.35
2023-08-24T13:30:01.788Z,5.20
2023-08-24T13:33:04.031Z,10.80
2023-08-24T13:36:06.267Z,9.80
2023-08-24T13:39:08.447Z,6.30
2023-08-24T13:42:10.526Z,6.80
2023-08-24T13:45:12.602Z,6.38
2023-08-24T13:48:14.703Z,7.43
2023-08-24T13:51:18.198Z,9.97
2023-08-24T13:54:21.821Z,7.88
2023-08-24T13:57:23.977Z,7.57
2023-08-24T14:00:26.677Z,5.93
2023-08-24T14:03:28.849Z,9.48
2023-08-24T14:06:35.720Z,8.73
2023-08-24T14:09:37.766Z,7.22
2023-08-24T14:12:39.854Z,7.38
2023-08-24T14:15:42.146Z,6.88
2023-08-24T14:18:44.321Z,6.63
2023-08-24T14:21:46.396Z,6.30
2023-08-24T14:24:48.415Z,7.07
2023-08-24T14:27:58.514Z,7.22
2023-08-24T14:31:07.228Z,8.05
2023-08-24T14:34:09.398Z,5.57
2023-08-24T14:37:11.544Z,8.90
2023-08-24T14:40:13.674Z,6.97
2023-08-24T14:43:16.575Z,5.55
2023-08-24T14:46:18.944Z,6.05
2023-08-24T14:49:21.069Z,7.35
2023-08-24T14:52:23.292Z,8.00
2023-08-24T14:55:25.323Z,8.55
2023-08-24T14:58:27.988Z,6.50
2023-08-24T15:01:30.140Z,6.80
2023-08-24T15:04:32.316Z,7.72
2023-08-24T15:07:34.366Z,9.27
2023-08-24T15:10:36.394Z,7.93
2023-08-24T15:13:39.265Z,7.20
2023-08-24T15:16:41.399Z,8.50
2023-08-24T15:19:43.493Z,6.10
2023-08-24T15:22:45.561Z,6.90
2023-08-24T15:25:47.597Z,6.38
2023-08-24T15:29:10.924Z,8.15
2023-08-24T15:32:13.777Z,6.28
2023-08-24T15:35:15.856Z,5.28
2023-08-24T15:38:17.885Z,6.57
2023-08-24T15:41:19.884Z,5.97
2023-08-24T15:44:21.966Z,8.05
2023-08-24T15:47:23.990Z,7.55
2023-08-24T15:50:26.290Z,8.20
2023-08-24T15:53:28.311Z,9.90
2023-08-24T15:56:32.011Z,11.55
2023-08-24T15:59:34.369Z,10.38
2023-08-24T16:02:36.456Z,8.13
2023-08-24T16:05:38.699Z,11.25
2023-08-24T16:08:40.802Z,6.67
2023-08-24T16:11:43.077Z,6.57
2023-08-24T16:14:45.137Z,7.50
2023-08-24T16:17:47.711Z,8.07
2023-08-24T16:20:50.123Z,6.72
2023-08-24T16:23:53.196Z,8.33
2023-08-24T16:26:55.742Z,7.93
2023-08-24T16:29:57.828Z,6.45
2023-08-24T16:32:59.880Z,7.57
2023-08-24T16:36:02.099Z,7.18
2023-08-24T16:39:04.220Z,9.40
2023-08-24T16:42:06.339Z,9.48
2023-08-24T16:45:08.915Z,5.85
2023-08-24T16:48:11.229Z,9.55
2023-08-24T16:51:13.575Z,6.80
2023-08-24T16:54:15.636Z,7.27
2023-08-24T16:57:17.767Z,8.60
2023-08-24T17:00:19.981Z,6.95
2023-08-24T17:03:22.060Z,11.43
2023-08-24T17:06:24.206Z,9.23
2023-08-24T17:09:26.276Z,7.27
2023-08-24T17:12:28.301Z,8.40
2023-08-24T17:15:30.521Z,8.30
2023-08-24T17:18:33.977Z,11.32
2023-08-24T17:21:37.005Z,7.78
2023-08-24T17:24:39.067Z,7.67
2023-08-24T17:27:41.446Z,11.10
2023-08-24T17:30:48.125Z,10.00
2023-08-24T17:33:50.259Z,8.52
2023-08-24T17:36:52.405Z,9.90
2023-08-24T17:39:54.401Z,7.90
2023-08-24T17:42:56.447Z,8.30
2023-08-24T17:45:58.603Z,10.05
2023-08-24T17:49:00.873Z,6.50
2023-08-24T17:52:04.268Z,8.90
2023-08-24T17:55:06.767Z,8.23
2023-08-24T17:58:09.109Z,10.13
2023-08-24T18:01:11.731Z,8.57
2023-08-24T18:04:13.776Z,7.65
2023-08-24T18:07:16.012Z,13.43
2023-08-24T18:10:18.189Z,11.03
2023-08-24T18:13:20.205Z,12.20
2023-08-24T18:16:23.142Z,12.82
2023-08-24T18:19:25.182Z,10.45
2023-08-24T18:22:27.294Z,8.35
2023-08-24T18:25:29.545Z,8.23
2023-08-24T18:28:31.631Z,9.43
2023-08-24T18:31:33.985Z,8.95
2023-08-24T18:34:36.053Z,9.65
2023-08-24T18:37:38.118Z,11.95
2023-08-24T18:40:40.531Z,10.63
2023-08-24T18:43:42.628Z,10.40
2023-08-24T18:46:44.711Z,11.13
2023-08-24T18:49:46.802Z,11.73
2023-08-24T18:52:48.928Z,10.82
2023-08-24T18:55:55.303Z,14.73
2023-08-24T18:58:57.332Z,11.93
2023-08-24T19:01:59.491Z,12.50
2023-08-24T19:05:01.496Z,19.13
2023-08-24T19:08:03.637Z,15.48
2023-08-24T19:11:05.759Z,17.33
2023-08-24T19:14:08.076Z,16.20
2023-08-24T19:17:10.147Z,18.80
2023-08-24T19:20:12.324Z,24.67
2023-08-24T19:23:14.372Z,22.75
2023-08-24T19:26:16.480Z,18.87
2023-08-24T19:29:18.645Z,16.58
2023-08-24T19:32:20.829Z,24.48
2023-08-24T19:35:22.885Z,17.55
2023-08-24T19:38:24.988Z,18.58
2023-08-24T19:41:27.084Z,15.13
2023-08-24T19:44:29.224Z,22.65
2023-08-24T19:47:31.344Z,21.60
2023-08-24T19:50:33.835Z,21.52
2023-08-24T19:53:35.962Z,18.95
2023-08-24T19:56:38.100Z,21.13
2023-08-24T19:59:40.145Z,17.45
2023-08-24T20:02:42.265Z,17.10
2023-08-24T20:05:44.419Z,15.65
2023-08-24T20:08:46.700Z,16.55
2023-08-24T20:11:49.983Z,23.00
2023-08-24T20:14:52.094Z,18.75
2023-08-24T20:17:54.544Z,20.05
2023-08-24T20:20:57.089Z,18.10
2023-08-24T20:23:59.116Z,18.70
2023-08-24T20:27:01.690Z,19.30
2023-08-24T20:30:04.793Z,19.27
2023-08-24T20:33:06.920Z,13.45
2023-08-24T20:36:09.049Z,18.27
2023-08-24T20:39:11.292Z,18.35
2023-08-24T20:42:17.492Z,14.27
2023-08-24T20:45:19.643Z,12.68
2023-08-24T20:48:21.738Z,12.57
2023-08-24T20:51:25.619Z,14.20
2023-08-24T20:54:28.756Z,13.45
2023-08-24T20:57:30.866Z,12.67
2023-08-24T21:00:33.243Z,11.38
2023-08-24T21:03:35.963Z,13.10
2023-08-24T21:06:38.102Z,10.45
2023-08-24T21:09:40.242Z,12.52
2023-08-24T21:12:42.328Z,13.53
2023-08-24T21:15:47.410Z,12.05
2023-08-24T21:18:49.717Z,11.30
2023-08-24T21:21:51.773Z,10.63
2023-08-24T21:24:53.893Z,13.05
2023-08-24T21:27:56.433Z,10.23
2023-08-24T21:31:02.847Z,11.63
2023-08-24T21:34:04.994Z,13.43
2023-08-24T21:37:07.016Z,11.40
2023-08-24T21:40:09.339Z,10.00
2023-08-24T21:43:11.430Z,9.57
2023-08-24T21:46:13.628Z,10.43
2023-08-24T21:49:15.630Z,10.77
2023-08-24T21:52:18.115Z,13.27
2023-08-24T21:55:20.160Z,11.32
2023-08-24T21:58:22.223Z,11.47
2023-08-24T22:01:24.313Z,12.88
2023-08-24T22:04:26.602Z,10.75
2023-08-24T22:07:28.646Z,11.68
2023-08-24T22:10:30.683Z,10.65
2023-08-24T22:13:32.782Z,13.73
2023-08-24T22:16:35.096Z,10.25
2023-08-24T22:19:37.267Z,15.20
2023-08-24T22:22:39.512Z,13.18
2023-08-24T22:25:41.659Z,8.73
2023-08-24T22:28:43.856Z,14.10
2023-08-24T22:31:45.925Z,11.80
2023-08-24T22:34:48.195Z,14.07
2023-08-24T22:37:50.304Z,12.73
2023-08-24T22:40:52.381Z,21.17
2023-08-24T22:43:54.469Z,12.10
2023-08-24T22:46:56.564Z,9.90
2023-08-24T22:49:59.007Z,10.90
2023-08-24T22:53:01.863Z,11.90
2023-08-24T22:56:04.261Z,11.95
2023-08-24T22:59:06.369Z,11.67
2023-08-24T23:02:08.847Z,11.73
2023-08-24T23:05:11.012Z,14.93
2023-08-24T23:08:13.113Z,12.02
2023-08-24T23:11:18.541Z,17.55
2023-08-24T23:14:23.822Z,14.00
2023-08-24T23:17:26.927Z,12.57
2023-08-24T23:20:29.187Z,12.05
2023-08-24T23:23:31.284Z,15.55
2023-08-24T23:26:33.396Z,12.25
2023-08-24T23:29:35.982Z,10.27
2023-08-24T23:32:40.262Z,14.77
2023-08-24T23:35:44.802Z,12.82
2023-08-24T23:38:46.907Z,12.10
2023-08-24T23:41:48.948Z,14.73
2023-08-24T23:44:52.478Z,15.23
2023-08-24T23:47:54.774Z,12.60
2023-08-24T23:50:57.174Z,15.63
2023-08-24T23:53:59.182Z,13.52
2023-08-24T23:57:01.315Z,12.00
